createdAt,value
2022-11-24T00:04:15.398Z,9.87
2022-11-24T00:09:18.959Z,11.27
2022-11-24T00:14:21.431Z,10.77
2022-11-24T00:19:23.522Z,10.07
2022-11-24T00:24:27.063Z,9.77
2022-11-24T00:29:29.183Z,9.93
2022-11-24T00:34:31.752Z,10.93
2022-11-24T00:39:35.193Z,10.27
2022-11-24T00:44:37.364Z,10.10
2022-11-24T00:49:39.505Z,9.87
2022-11-24T00:54:43.116Z,10.40
2022-11-24T00:59:45.318Z,10.97
2022-11-24T01:04:47.020Z,10.70
2022-11-24T01:09:50.572Z,11.27
2022-11-24T01:14:53.200Z,9.90
2022-11-24T01:19:55.546Z,12.70
2022-11-24T01:24:59.260Z,10.63
2022-11-24T01:30:01.386Z,10.17
2022-11-24T01:35:03.406Z,12.03
2022-11-24T01:40:09.027Z,10.70
2022-11-24T01:45:34.104Z,9.90
2022-11-24T01:50:36.725Z,10.83
2022-11-24T01:55:40.896Z,10.87
2022-11-24T02:00:45.220Z,11.77
2022-11-24T02:05:54.292Z,10.37
2022-11-24T02:10:58.216Z,10.47
2022-11-24T02:16:01.650Z,11.17
2022-11-24T02:21:04.151Z,10.47
2022-11-24T02:26:15.128Z,10.17
2022-11-24T02:31:18.879Z,11.60
2022-11-24T02:36:21.479Z,11.00
2022-11-24T02:41:26.466Z,11.13
2022-11-24T02:46:30.176Z,11.20
2022-11-24T02:51:32.449Z,11.70
2022-11-24T02:56:34.600Z,11.37
2022-11-24T03:01:38.180Z,11.87
2022-11-24T03:06:40.427Z,11.07
2022-11-24T03:11:42.577Z,12.70
2022-11-24T03:16:46.092Z,11.47
2022-11-24T03:21:48.213Z,10.77
2022-11-24T03:26:49.991Z,12.10
2022-11-24T03:31:53.454Z,12.23
2022-11-24T03:36:55.873Z,11.57
2022-11-24T03:41:58.100Z,10.97
2022-11-24T03:47:01.643Z,10.57
2022-11-24T03:52:07.994Z,10.97
2022-11-24T03:57:10.597Z,11.30
2022-11-24T04:02:14.267Z,12.03
2022-11-24T04:07:17.202Z,12.13
2022-11-24T04:12:19.753Z,12.33
2022-11-24T04:17:23.487Z,11.70
2022-11-24T04:22:25.663Z,11.00
2022-11-24T04:27:27.919Z,11.93
2022-11-24T04:32:31.124Z,12.17
2022-11-24T04:37:35.037Z,12.17
2022-11-24T04:42:37.727Z,13.63
2022-11-24T04:47:41.281Z,12.27
2022-11-24T04:52:43.576Z,12.87
2022-11-24T04:57:45.545Z,12.60
2022-11-24T05:02:49.081Z,13.17
2022-11-24T05:07:51.212Z,12.63
2022-11-24T05:12:56.251Z,12.80
2022-11-24T05:18:00.093Z,13.27
2022-11-24T05:23:02.891Z,12.60
2022-11-24T05:28:07.075Z,11.93
2022-11-24T05:33:14.328Z,11.00
2022-11-24T05:38:17.278Z,11.40
2022-11-24T05:43:19.375Z,13.67
2022-11-24T05:48:22.963Z,11.63
2022-11-24T05:53:24.819Z,11.73
2022-11-24T05:58:27.726Z,10.43
2022-11-24T06:03:30.988Z,11.40
2022-11-24T06:08:34.531Z,11.57
2022-11-24T06:13:36.414Z,12.87
2022-11-24T06:18:40.155Z,13.37
2022-11-24T06:23:42.282Z,12.67
2022-11-24T06:28:44.471Z,13.37
2022-11-24T06:33:47.889Z,10.93
2022-11-24T06:38:49.616Z,13.07
2022-11-24T06:43:52.173Z,14.43
2022-11-24T06:48:57.782Z,12.90
2022-11-24T06:53:59.662Z,12.67
2022-11-24T06:59:02.572Z,11.77
2022-11-24T07:04:05.805Z,12.57
2022-11-24T07:09:07.660Z,13.07
2022-11-24T07:14:09.584Z,13.23
2022-11-24T07:19:13.266Z,14.23
2022-11-24T07:24:15.052Z,13.37
2022-11-24T07:29:17.230Z,13.03
2022-11-24T07:34:20.683Z,14.80
2022-11-24T07:39:22.822Z,13.23
2022-11-24T07:44:24.882Z,12.90
2022-11-24T07:49:28.346Z,13.67
2022-11-24T07:54:31.013Z,12.93
2022-11-24T07:59:33.228Z,13.13
2022-11-24T08:04:37.521Z,13.33
2022-11-24T08:09:39.593Z,13.13
2022-11-24T08:14:41.683Z,14.37
2022-11-24T08:19:45.706Z,13.87
2022-11-24T08:24:47.808Z,14.77
2022-11-24T08:29:49.849Z,14.60
2022-11-24T08:34:59.475Z,14.73
2022-11-24T08:40:06.936Z,15.00
2022-11-24T08:45:20.476Z,15.50
2022-11-24T08:50:25.941Z,14.30
2022-11-24T08:55:28.069Z,14.70
2022-11-24T09:00:30.027Z,14.20
2022-11-24T09:10:59.988Z,14.37
2022-11-24T09:16:03.432Z,14.67
2022-11-24T09:21:11.957Z,14.20
2022-11-24T09:26:17.574Z,14.00
2022-11-24T09:31:19.499Z,14.47
2022-11-24T09:36:23.078Z,15.27
2022-11-24T09:41:39.285Z,13.57
2022-11-24T09:46:54.986Z,15.17
2022-11-24T09:52:02.836Z,13.50
2022-11-24T09:57:07.191Z,14.60
2022-11-24T10:02:12.052Z,13.47
2022-11-24T10:07:24.792Z,14.37
2022-11-24T10:12:50.139Z,15.03
2022-11-24T10:18:10.492Z,15.37
2022-11-24T10:23:39.447Z,12.77
2022-11-24T10:28:47.958Z,13.67
2022-11-24T10:33:50.746Z,13.90
2022-11-24T10:39:01.032Z,13.60
2022-11-24T10:44:03.278Z,13.27
2022-11-24T10:49:06.565Z,12.73
2022-11-24T10:54:16.908Z,11.97
2022-11-24T10:59:31.369Z,12.37
2022-11-24T11:04:34.961Z,12.53
2022-11-24T11:09:38.414Z,11.47
2022-11-24T11:14:40.488Z,11.17
2022-11-24T11:19:54.215Z,11.30
2022-11-24T11:25:14.156Z,12.30
2022-11-24T11:35:47.110Z,12.10
2022-11-24T11:40:51.924Z,13.00
2022-11-24T11:46:02.838Z,13.67
2022-11-24T11:51:26.194Z,13.80
2022-11-24T11:56:33.108Z,13.83
2022-11-24T12:01:49.466Z,13.53
2022-11-24T12:07:16.889Z,13.53
2022-11-24T12:12:42.670Z,13.50
2022-11-24T12:17:51.452Z,13.90
2022-11-24T12:23:03.628Z,13.70
2022-11-24T12:28:24.130Z,13.10
2022-11-24T12:33:59.461Z,15.20
2022-11-24T12:39:10.480Z,13.30
2022-11-24T12:44:31.010Z,14.57
2022-11-24T12:49:41.929Z,15.30
2022-11-24T12:54:44.157Z,15.80
2022-11-24T12:59:57.934Z,15.27
2022-11-24T13:05:14.330Z,16.37
2022-11-24T13:10:54.736Z,15.17
2022-11-24T13:22:00.643Z,14.73
2022-11-24T13:27:29.349Z,16.50
2022-11-24T13:33:19.546Z,15.43
2022-11-24T13:38:39.626Z,16.17
2022-11-24T13:44:23.682Z,14.03
2022-11-24T13:49:37.680Z,15.37
2022-11-24T13:54:42.412Z,15.77
2022-11-24T13:59:44.816Z,13.63
2022-11-24T14:04:48.800Z,15.53
2022-11-24T14:09:52.455Z,15.30
2022-11-24T14:15:13.319Z,15.30
2022-11-24T14:20:24.188Z,14.67
2022-11-24T14:25:29.483Z,16.23
2022-11-24T14:30:31.668Z,14.17
2022-11-24T14:35:42.823Z,14.83
2022-11-24T14:40:48.471Z,15.33
2022-11-24T14:45:52.673Z,15.70
2022-11-24T14:51:09.026Z,14.83
2022-11-24T14:56:23.022Z,14.87
2022-11-24T15:01:31.421Z,16.23
2022-11-24T15:06:34.901Z,14.93
2022-11-24T15:11:36.974Z,14.97
2022-11-24T15:16:40.277Z,15.33
2022-11-24T15:21:43.891Z,14.57
2022-11-24T15:26:46.533Z,16.77
2022-11-24T15:31:52.638Z,14.73
2022-11-24T15:36:56.938Z,15.53
2022-11-24T15:41:59.016Z,14.80
2022-11-24T15:47:01.109Z,15.57
2022-11-24T15:52:06.132Z,15.17
2022-11-24T15:57:11.056Z,14.23
2022-11-24T16:02:14.345Z,14.90
2022-11-24T16:07:18.164Z,15.43
2022-11-24T16:12:20.384Z,15.10
2022-11-24T16:17:22.345Z,15.03
2022-11-24T16:22:25.746Z,15.47
2022-11-24T16:27:27.963Z,16.00
2022-11-24T16:32:29.965Z,14.53
2022-11-24T16:37:33.748Z,14.43
2022-11-24T16:42:35.463Z,14.50
2022-11-24T16:47:39.744Z,13.33
2022-11-24T16:52:42.822Z,14.77
2022-11-24T16:57:44.979Z,13.37
2022-11-24T17:02:46.908Z,13.90
2022-11-24T17:07:50.568Z,13.40
2022-11-24T17:12:52.695Z,14.63
2022-11-24T17:18:22.968Z,13.33
2022-11-24T17:23:18.595Z,14.43
2022-11-24T17:28:20.897Z,13.83
2022-11-24T17:33:22.987Z,12.77
2022-11-24T17:38:28.114Z,14.80
2022-11-24T17:43:29.870Z,14.13
2022-11-24T17:48:32.364Z,13.83
2022-11-24T17:53:37.063Z,14.37
2022-11-24T17:58:43.366Z,13.73
2022-11-24T18:03:48.999Z,13.20
2022-11-24T18:08:57.931Z,14.30
2022-11-24T18:14:02.418Z,16.77
2022-11-24T18:19:09.364Z,14.30
2022-11-24T18:24:13.511Z,13.73
2022-11-24T18:29:15.376Z,14.23
2022-11-24T18:34:17.453Z,13.87
2022-11-24T18:39:20.813Z,13.73
2022-11-24T18:44:22.481Z,14.20
2022-11-24T18:49:24.544Z,13.10
2022-11-24T18:54:28.512Z,13.33
2022-11-24T18:59:30.236Z,15.13
2022-11-24T19:04:32.024Z,13.77
2022-11-24T19:09:35.786Z,14.73
2022-11-24T19:14:38.057Z,14.33
2022-11-24T19:19:40.174Z,13.77
2022-11-24T19:24:43.542Z,13.07
2022-11-24T19:29:45.711Z,13.70
2022-11-24T19:34:47.878Z,11.50
2022-11-24T19:39:51.641Z,13.53
2022-11-24T19:44:56.632Z,14.60
2022-11-24T19:49:59.145Z,14.73
2022-11-24T19:55:02.293Z,14.60
2022-11-24T20:00:06.050Z,12.93
2022-11-24T20:05:08.269Z,11.80
2022-11-24T20:10:11.548Z,11.93
2022-11-24T20:15:13.519Z,11.87
2022-11-24T20:20:15.427Z,15.07
2022-11-24T20:25:18.574Z,13.53
2022-11-24T20:30:20.903Z,13.60
2022-11-24T20:35:22.967Z,13.70
2022-11-24T20:40:26.498Z,12.07
2022-11-24T20:45:28.303Z,11.43
2022-11-24T20:50:30.265Z,10.87
2022-11-24T20:55:33.435Z,11.67
2022-11-24T21:00:35.285Z,10.93
2022-11-24T21:05:37.721Z,10.70
2022-11-24T21:10:40.803Z,11.13
2022-11-24T21:15:43.011Z,11.33
2022-11-24T21:20:44.868Z,10.93
2022-11-24T21:25:48.066Z,11.43
2022-11-24T21:30:49.786Z,11.07
2022-11-24T21:35:51.862Z,10.60
2022-11-24T21:40:59.369Z,10.07
2022-11-24T21:46:01.990Z,11.37
2022-11-24T21:51:06.509Z,11.03
2022-11-24T21:56:11.897Z,11.40
2022-11-24T22:01:14.409Z,10.97
2022-11-24T22:06:17.786Z,12.03
2022-11-24T22:11:23.409Z,11.47
2022-11-24T22:16:25.216Z,11.37
2022-11-24T22:21:26.959Z,11.50
2022-11-24T22:26:30.527Z,10.47
2022-11-24T22:31:33.058Z,12.23
2022-11-24T22:36:35.067Z,10.37
2022-11-24T22:41:39.144Z,9.63
2022-11-24T22:46:40.819Z,10.17
2022-11-24T22:51:42.907Z,11.27
2022-11-24T22:56:45.969Z,11.10
2022-11-24T23:01:47.773Z,11.00
2022-11-24T23:06:49.576Z,10.70
2022-11-24T23:11:52.636Z,9.70
2022-11-24T23:16:54.346Z,9.67
2022-11-24T23:21:56.034Z,10.10
2022-11-24T23:26:59.059Z,10.27
2022-11-24T23:32:00.850Z,10.50
2022-11-24T23:37:02.541Z,10.20
2022-11-24T23:42:06.106Z,10.00
2022-11-24T23:47:07.729Z,10.67
2022-11-24T23:52:09.828Z,9.67
2022-11-24T23:57:13.304Z,9.30
